Superstar Express — 3FFX9 — position and weather

sailwx.info

Track history (hours):
 
Tides and Currents Weather Stations Pressure Air Temp Water Temp Dewpoint Dewpoint Depression Visibility Wind Speed Wind Dir Waves Ship Positions

Superstar Express

Operator: P & O Irish Sea

Last reported at 2018-Jun-12 19:46 UTC. Time now 2018-Jun-22 07:40 UTC.
Position N 01°19' E 103°20'.
Warning: this ship's position is 9 days out of date.

Length 183 m; draft 8.9 m.

Type: Ship. MMSI: 351360000.

Date/timePositionNaut miles runAvg speedWind from/ knotsBaromVisibWave heightAir tempDewpointWater temp
2018-Jun-12 19:46N 01°19' E 103°20'412.8
2018-Jun-12 19:29N 01°17' E 103°22'611.8
2018-Jun-12 18:58N 01°14' E 103°27'511.8
2018-Jun-12 18:30N 01°13' E 103°33'510.6
2018-Jun-12 18:00N 01°11' E 103°38'510.7
2018-Jun-12 17:30N 01°09' E 103°43'4 7.9
2018-Jun-12 17:00N 01°10' E 103°47'4 9.0
2018-Jun-12 16:30N 01°12' E 103°51'5 9.0
2018-Jun-12 16:00N 01°14' E 103°55'4 7.7
2018-Jun-12 15:29N 01°15' E 103°58'2 4.9
2018-Jun-12 15:00N 01°17' E 104°00'1 1.0
2018-Jun-12 14:19N 01°17' E 104°00'0 0.0
2018-Jun-12 13:56N 01°17' E 104°00'0 0.0
2018-Jun-12 13:26N 01°17' E 104°00'0 0.0
2018-Jun-12 12:59N 01°17' E 104°00'0 0.0
2018-Jun-12 12:29N 01°17' E 104°00'0 0.0
2018-Jun-12 11:59N 01°17' E 104°00'0 0.0
2018-Jun-12 11:29N 01°17' E 104°00'0 0.0
2018-Jun-12 10:59N 01°17' E 104°00'0 0.0
2018-Jun-12 10:29N 01°17' E 104°00'0 0.0
2018-Jun-12 09:44N 01°17' E 104°00'0 0.2
2018-Jun-12 09:23N 01°18' E 104°01'0 0.0
2018-Jun-12 08:59N 01°18' E 104°01'0 0.1
2018-Jun-12 08:29N 01°18' E 104°01'0 0.0
2018-Jun-12 07:56N 01°18' E 104°01'0 0.0
2018-Jun-12 07:09N 01°18' E 104°01'0 0.0
2018-Jun-12 06:53N 01°18' E 104°01'0 0.1
2018-Jun-12 06:26N 01°18' E 104°01'0 0.0
2018-Jun-12 05:56N 01°18' E 104°01'0 0.0
2018-Jun-12 05:27N 01°18' E 104°01'0 0.1
2018-Jun-12 04:52N 01°18' E 104°01'0 0.0
2018-Jun-12 04:23N 01°18' E 104°01'0 0.0
2018-Jun-12 03:44N 01°18' E 104°01'0 0.2
2018-Jun-12 03:23N 01°17' E 104°01'0 0.5
2018-Jun-12 03:00N 01°17' E 104°00'2 3.0
2018-Jun-12 02:30N 01°16' E 104°01'510.2
2018-Jun-12 02:00N 01°17' E 104°06'711.2
2018-Jun-12 01:24N 01°17' E 104°13'5 8.8
2018-Jun-12 00:52N 01°18' E 104°17'3 7.5
2018-Jun-12 00:30N 01°19' E 104°20'4 7.7
2018-Jun-11 23:58N 01°22' E 104°23'511.1
2018-Jun-11 23:30N 01°25' E 104°27'3811.6
2018-Jun-11 20:14N 01°59' E 104°45'411.1
2018-Jun-11 19:53N 02°02' E 104°47'  
Track history (hours):
 
Tides and Currents Weather Stations Pressure Air Temp Water Temp Dewpoint Dewpoint Depression Visibility Wind Speed Wind Dir Waves Ship Positions

Superstar Express

Operator: P & O Irish Sea

Last reported at 2018-Jun-12 19:46 UTC. Time now 2018-Jun-22 07:40 UTC.
Position N 01°19' E 103°20'.
Warning: this ship's position is 9 days out of date.

Length 183 m; draft 8.9 m.

Type: Ship. MMSI: 351360000.

Date/timePositionNaut miles runAvg speedWind from/ knotsBaromVisibWave heightAir tempDewpointWater temp
2018-Jun-12 19:46N 01°19' E 103°20'412.8
2018-Jun-12 19:29N 01°17' E 103°22'611.8
2018-Jun-12 18:58N 01°14' E 103°27'511.8
2018-Jun-12 18:30N 01°13' E 103°33'510.6
2018-Jun-12 18:00N 01°11' E 103°38'510.7
2018-Jun-12 17:30N 01°09' E 103°43'4 7.9
2018-Jun-12 17:00N 01°10' E 103°47'4 9.0
2018-Jun-12 16:30N 01°12' E 103°51'5 9.0
2018-Jun-12 16:00N 01°14' E 103°55'4 7.7
2018-Jun-12 15:29N 01°15' E 103°58'2 4.9
2018-Jun-12 15:00N 01°17' E 104°00'1 1.0
2018-Jun-12 14:19N 01°17' E 104°00'0 0.0
2018-Jun-12 13:56N 01°17' E 104°00'0 0.0
2018-Jun-12 13:26N 01°17' E 104°00'0 0.0
2018-Jun-12 12:59N 01°17' E 104°00'0 0.0
2018-Jun-12 12:29N 01°17' E 104°00'0 0.0
2018-Jun-12 11:59N 01°17' E 104°00'0 0.0
2018-Jun-12 11:29N 01°17' E 104°00'0 0.0
2018-Jun-12 10:59N 01°17' E 104°00'0 0.0
2018-Jun-12 10:29N 01°17' E 104°00'0 0.0
2018-Jun-12 09:44N 01°17' E 104°00'0 0.2
2018-Jun-12 09:23N 01°18' E 104°01'0 0.0
2018-Jun-12 08:59N 01°18' E 104°01'0 0.1
2018-Jun-12 08:29N 01°18' E 104°01'0 0.0
2018-Jun-12 07:56N 01°18' E 104°01'0 0.0
2018-Jun-12 07:09N 01°18' E 104°01'0 0.0
2018-Jun-12 06:53N 01°18' E 104°01'0 0.1
2018-Jun-12 06:26N 01°18' E 104°01'0 0.0
2018-Jun-12 05:56N 01°18' E 104°01'0 0.0
2018-Jun-12 05:27N 01°18' E 104°01'0 0.1
2018-Jun-12 04:52N 01°18' E 104°01'0 0.0
2018-Jun-12 04:23N 01°18' E 104°01'0 0.0
2018-Jun-12 03:44N 01°18' E 104°01'0 0.2
2018-Jun-12 03:23N 01°17' E 104°01'0 0.5
2018-Jun-12 03:00N 01°17' E 104°00'2 3.0
2018-Jun-12 02:30N 01°16' E 104°01'510.2
2018-Jun-12 02:00N 01°17' E 104°06'711.2
2018-Jun-12 01:24N 01°17' E 104°13'5 8.8
2018-Jun-12 00:52N 01°18' E 104°17'3 7.5
2018-Jun-12 00:30N 01°19' E 104°20'4 7.7
2018-Jun-11 23:58N 01°22' E 104°23'511.1
2018-Jun-11 23:30N 01°25' E 104°27'3811.6
2018-Jun-11 20:14N 01°59' E 104°45'411.1
2018-Jun-11 19:53N 02°02' E 104°47'  

Dump ship's entire track history